sensor_id;sensor_type;location;lat;lon;timestamp;pressure;altitude;pressure_sealevel;temperature;humidity
7180;BME280;3631;42.152;24.756;2023-09-30T00:01:57;84662.97;;;-144.30;52.11
7180;BME280;3631;42.152;24.756;2023-09-30T00:04:25;84637.13;;;-144.30;52.42
7180;BME280;3631;42.152;24.756;2023-09-30T00:06:53;84686.81;;;-144.30;52.62
7180;BME280;3631;42.152;24.756;2023-09-30T00:09:19;84680.84;;;-144.30;52.46
7180;BME280;3631;42.152;24.756;2023-09-30T00:11:48;84666.94;;;-144.30;52.56
7180;BME280;3631;42.152;24.756;2023-09-30T00:14:15;84653.03;;;-144.30;52.58
7180;BME280;3631;42.152;24.756;2023-09-30T00:16:43;84688.81;;;-144.30;52.55
7180;BME280;3631;42.152;24.756;2023-09-30T00:19:10;84694.75;;;-144.30;52.49
7180;BME280;3631;42.152;24.756;2023-09-30T00:21:37;84692.78;;;-144.30;52.52
7180;BME280;3631;42.152;24.756;2023-09-30T00:24:04;84680.84;;;-144.30;52.45
7180;BME280;3631;42.152;24.756;2023-09-30T00:26:31;84706.69;;;-144.30;52.48
7180;BME280;3631;42.152;24.756;2023-09-30T00:28:59;84668.94;;;-144.30;52.51
7180;BME280;3631;42.152;24.756;2023-09-30T00:31:29;84708.66;;;-144.30;52.55
7180;BME280;3631;42.152;24.756;2023-09-30T00:33:56;84708.66;;;-144.30;52.51
7180;BME280;3631;42.152;24.756;2023-09-30T00:36:23;84688.81;;;-144.30;52.31
7180;BME280;3631;42.152;24.756;2023-09-30T00:38:50;84668.94;;;-144.30;52.52
7180;BME280;3631;42.152;24.756;2023-09-30T00:41:17;84696.75;;;-144.30;52.32
7180;BME280;3631;42.152;24.756;2023-09-30T00:43:45;84740.47;;;-144.30;52.61
7180;BME280;3631;42.152;24.756;2023-09-30T00:46:25;84702.72;;;-144.30;52.44
7180;BME280;3631;42.152;24.756;2023-09-30T00:48:54;84742.47;;;-144.30;52.53
7180;BME280;3631;42.152;24.756;2023-09-30T00:51:22;84728.56;;;-144.30;52.71
7180;BME280;3631;42.152;24.756;2023-09-30T00:53:49;84724.56;;;-144.30;52.83
7180;BME280;3631;42.152;24.756;2023-09-30T00:56:17;84708.66;;;-144.30;52.66
7180;BME280;3631;42.152;24.756;2023-09-30T00:58:45;84720.59;;;-144.30;53.00
7180;BME280;3631;42.152;24.756;2023-09-30T01:01:14;84716.63;;;-144.30;52.86
7180;BME280;3631;42.152;24.756;2023-09-30T01:03:42;84710.66;;;-144.30;53.11
7180;BME280;3631;42.152;24.756;2023-09-30T01:06:09;84706.69;;;-144.30;53.15
7180;BME280;3631;42.152;24.756;2023-09-30T01:08:36;84710.66;;;-144.30;53.13
7180;BME280;3631;42.152;24.756;2023-09-30T01:11:03;84716.63;;;-144.30;52.76
7180;BME280;3631;42.152;24.756;2023-09-30T01:13:33;84700.72;;;-144.30;52.83
7180;BME280;3631;42.152;24.756;2023-09-30T01:16:03;84718.63;;;-144.30;52.86
7180;BME280;3631;42.152;24.756;2023-09-30T01:18:32;84768.31;;;-144.30;52.98
7180;BME280;3631;42.152;24.756;2023-09-30T01:21:01;84708.66;;;-144.30;53.16
7180;BME280;3631;42.152;24.756;2023-09-30T01:23:31;84708.66;;;-144.30;53.01
7180;BME280;3631;42.152;24.756;2023-09-30T01:26:01;84746.44;;;-144.30;53.13
7180;BME280;3631;42.152;24.756;2023-09-30T01:28:28;84724.56;;;-144.30;53.31
7180;BME280;3631;42.152;24.756;2023-09-30T01:30:56;84734.50;;;-144.30;53.60
7180;BME280;3631;42.152;24.756;2023-09-30T01:33:22;84776.25;;;-144.30;53.82
7180;BME280;3631;42.152;24.756;2023-09-30T01:35:49;84766.31;;;-144.30;53.82
7180;BME280;3631;42.152;24.756;2023-09-30T01:38:16;84762.34;;;-144.30;54.06
7180;BME280;3631;42.152;24.756;2023-09-30T01:40:45;84776.25;;;-144.30;54.26
7180;BME280;3631;42.152;24.756;2023-09-30T01:43:12;84744.44;;;-144.30;54.38
7180;BME280;3631;42.152;24.756;2023-09-30T01:45:39;84756.38;;;-144.30;54.49
7180;BME280;3631;42.152;24.756;2023-09-30T01:48:06;84798.13;;;-144.30;55.12
7180;BME280;3631;42.152;24.756;2023-09-30T01:50:36;84796.13;;;-144.30;55.42
7180;BME280;3631;42.152;24.756;2023-09-30T01:53:03;84790.16;;;-144.30;55.73
7180;BME280;3631;42.152;24.756;2023-09-30T01:55:31;84812.03;;;-144.30;55.70
7180;BME280;3631;42.152;24.756;2023-09-30T01:58:00;84875.63;;;-144.30;55.76
7180;BME280;3631;42.152;24.756;2023-09-30T02:00:27;84859.72;;;-144.30;56.15
7180;BME280;3631;42.152;24.756;2023-09-30T02:02:54;84865.69;;;-144.30;56.49
7180;BME280;3631;42.152;24.756;2023-09-30T02:05:22;84847.81;;;-144.30;56.41
7180;BME280;3631;42.152;24.756;2023-09-30T02:07:49;84851.78;;;-144.30;56.34
7180;BME280;3631;42.152;24.756;2023-09-30T02:10:16;84867.69;;;-144.30;56.61
7180;BME280;3631;42.152;24.756;2023-09-30T02:12:44;84841.84;;;-144.30;56.77
7180;BME280;3631;42.152;24.756;2023-09-30T02:15:13;84871.66;;;-144.30;56.58
7180;BME280;3631;42.152;24.756;2023-09-30T02:17:40;84849.78;;;-144.30;56.45
7180;BME280;3631;42.152;24.756;2023-09-30T02:20:11;84823.94;;;-144.30;56.05
7180;BME280;3631;42.152;24.756;2023-09-30T02:22:42;84849.78;;;-144.30;56.09
7180;BME280;3631;42.152;24.756;2023-09-30T02:25:10;84837.88;;;-144.30;56.31
7180;BME280;3631;42.152;24.756;2023-09-30T02:27:39;84853.78;;;-144.30;56.24
7180;BME280;3631;42.152;24.756;2023-09-30T02:30:08;84827.94;;;-144.30;56.30
7180;BME280;3631;42.152;24.756;2023-09-30T02:32:38;84867.69;;;-144.30;56.95
7180;BME280;3631;42.152;24.756;2023-09-30T02:35:06;84728.56;;;-144.30;57.61
7180;BME280;3631;42.152;24.756;2023-09-30T02:37:33;84893.53;;;-144.30;57.89
7180;BME280;3631;42.152;24.756;2023-09-30T02:40:02;84891.53;;;-144.30;58.11
7180;BME280;3631;42.152;24.756;2023-09-30T02:42:31;84867.69;;;-144.30;57.99
7180;BME280;3631;42.152;24.756;2023-09-30T02:44:59;84617.25;;;-144.30;57.89
7180;BME280;3631;42.152;24.756;2023-09-30T02:47:27;85468.00;;;-144.30;57.94
7180;BME280;3631;42.152;24.756;2023-09-30T02:49:56;84895.50;;;-144.30;57.55
7180;BME280;3631;42.152;24.756;2023-09-30T02:52:24;84907.44;;;-144.30;57.34
7180;BME280;3631;42.152;24.756;2023-09-30T02:54:51;84899.47;;;-144.30;57.40
7180;BME280;3631;42.152;24.756;2023-09-30T02:57:18;84893.53;;;-144.30;57.62
7180;BME280;3631;42.152;24.756;2023-09-30T02:59:45;84887.56;;;-144.30;57.33
7180;BME280;3631;42.152;24.756;2023-09-30T03:02:12;84907.44;;;-144.30;57.21
7180;BME280;3631;42.152;24.756;2023-09-30T03:04:40;84919.34;;;-144.30;57.11
7180;BME280;3631;42.152;24.756;2023-09-30T03:07:09;84875.63;;;-144.30;57.08
7180;BME280;3631;42.152;24.756;2023-09-30T03:09:37;84951.16;;;-144.30;56.97
7180;BME280;3631;42.152;24.756;2023-09-30T03:12:05;84909.41;;;-144.30;56.91
7180;BME280;3631;42.152;24.756;2023-09-30T03:14:34;84955.13;;;-144.30;56.75
7180;BME280;3631;42.152;24.756;2023-09-30T03:17:01;84955.13;;;-144.30;57.28
7180;BME280;3631;42.152;24.756;2023-09-30T03:19:28;84903.47;;;-144.30;57.19
7180;BME280;3631;42.152;24.756;2023-09-30T03:21:55;84963.09;;;-144.30;56.91
7180;BME280;3631;42.152;24.756;2023-09-30T03:24:24;84939.25;;;-144.30;57.01
7180;BME280;3631;42.152;24.756;2023-09-30T03:26:52;84929.28;;;-144.30;56.94
7180;BME280;3631;42.152;24.756;2023-09-30T03:29:19;84899.47;;;-144.30;56.92
7180;BME280;3631;42.152;24.756;2023-09-30T03:31:46;84931.28;;;-144.30;57.26
7180;BME280;3631;42.152;24.756;2023-09-30T03:34:13;84927.31;;;-144.30;57.47
7180;BME280;3631;42.152;24.756;2023-09-30T03:36:41;84911.41;;;-144.30;57.90
7180;BME280;3631;42.152;24.756;2023-09-30T03:39:09;84919.34;;;-144.30;57.59
7180;BME280;3631;42.152;24.756;2023-09-30T03:41:41;84959.13;;;-144.30;57.76
7180;BME280;3631;42.152;24.756;2023-09-30T03:44:09;84967.06;;;-144.30;57.65
7180;BME280;3631;42.152;24.756;2023-09-30T03:46:36;84923.34;;;-144.30;57.82
7180;BME280;3631;42.152;24.756;2023-09-30T03:49:03;84977.00;;;-144.30;57.72
7180;BME280;3631;42.152;24.756;2023-09-30T03:51:30;84967.06;;;-144.30;57.77
7180;BME280;3631;42.152;24.756;2023-09-30T03:53:57;84965.06;;;-144.30;57.78
7180;BME280;3631;42.152;24.756;2023-09-30T03:56:23;84959.13;;;-144.30;58.21
7180;BME280;3631;42.152;24.756;2023-09-30T03:58:52;84971.03;;;-144.30;58.33
7180;BME280;3631;42.152;24.756;2023-09-30T04:01:19;84973.03;;;-144.30;58.42
7180;BME280;3631;42.152;24.756;2023-09-30T04:03:46;84949.19;;;-144.30;58.18
7180;BME280;3631;42.152;24.756;2023-09-30T04:06:13;84982.97;;;-144.30;58.29
7180;BME280;3631;42.152;24.756;2023-09-30T04:08:40;84998.88;;;-144.30;58.51
7180;BME280;3631;42.152;24.756;2023-09-30T04:11:09;84992.91;;;-144.30;58.34
7180;BME280;3631;42.152;24.756;2023-09-30T04:13:42;85018.75;;;-144.30;58.33
7180;BME280;3631;42.152;24.756;2023-09-30T04:16:11;84625.19;;;-144.30;58.18
7180;BME280;3631;42.152;24.756;2023-09-30T04:18:37;84931.28;;;-144.30;58.56
7180;BME280;3631;42.152;24.756;2023-09-30T04:21:06;85008.81;;;-144.30;58.77
7180;BME280;3631;42.152;24.756;2023-09-30T04:23:33;85018.75;;;-144.30;58.93
7180;BME280;3631;42.152;24.756;2023-09-30T04:26:02;84921.34;;;-144.30;58.78
7180;BME280;3631;42.152;24.756;2023-09-30T04:28:29;85157.88;;;-144.30;58.69
7180;BME280;3631;42.152;24.756;2023-09-30T04:30:56;85000.84;;;-144.30;59.03
7180;BME280;3631;42.152;24.756;2023-09-30T04:33:25;84969.06;;;-144.30;59.15
7180;BME280;3631;42.152;24.756;2023-09-30T04:35:52;85022.72;;;-144.30;58.93
7180;BME280;3631;42.152;24.756;2023-09-30T04:38:19;84990.91;;;-144.30;58.81
7180;BME280;3631;42.152;24.756;2023-09-30T04:40:46;84963.09;;;-144.30;58.59
7180;BME280;3631;42.152;24.756;2023-09-30T04:43:17;84998.88;;;-144.30;58.64
7180;BME280;3631;42.152;24.756;2023-09-30T04:45:43;85006.81;;;-144.30;58.77
7180;BME280;3631;42.152;24.756;2023-09-30T04:48:10;84994.91;;;-144.30;58.62
7180;BME280;3631;42.152;24.756;2023-09-30T04:50:40;84980.97;;;-144.30;58.45
7180;BME280;3631;42.152;24.756;2023-09-30T04:53:07;84990.91;;;-144.30;58.39
7180;BME280;3631;42.152;24.756;2023-09-30T04:55:34;84998.88;;;-144.30;58.39
7180;BME280;3631;42.152;24.756;2023-09-30T04:58:03;84998.88;;;-144.30;57.87
7180;BME280;3631;42.152;24.756;2023-09-30T05:00:30;84963.09;;;-144.30;57.56
7180;BME280;3631;42.152;24.756;2023-09-30T05:02:57;84953.16;;;-144.30;57.18
7180;BME280;3631;42.152;24.756;2023-09-30T05:05:25;84901.47;;;-144.30;57.18
7180;BME280;3631;42.152;24.756;2023-09-30T05:07:54;84925.31;;;-144.30;57.43
7180;BME280;3631;42.152;24.756;2023-09-30T05:10:20;84939.25;;;-144.30;57.02
7180;BME280;3631;42.152;24.756;2023-09-30T05:12:47;84895.50;;;-144.30;55.77
7180;BME280;3631;42.152;24.756;2023-09-30T05:15:15;84986.94;;;-144.30;54.14
7180;BME280;3631;42.152;24.756;2023-09-30T05:17:42;84780.22;;;-144.30;52.50
7180;BME280;3631;42.152;24.756;2023-09-30T05:20:10;84660.97;;;-144.30;50.51
7180;BME280;3631;42.152;24.756;2023-09-30T05:22:38;84537.75;;;-144.30;47.69
7180;BME280;3631;42.152;24.756;2023-09-30T05:25:07;84414.53;;;-144.30;45.72
7180;BME280;3631;42.152;24.756;2023-09-30T05:27:34;84257.53;;;-144.30;43.77
7180;BME280;3631;42.152;24.756;2023-09-30T05:30:01;84130.34;;;-144.30;42.41
7180;BME280;3631;42.152;24.756;2023-09-30T05:32:28;84040.91;;;-144.30;41.17
7180;BME280;3631;42.152;24.756;2023-09-30T05:34:56;83959.44;;;-144.30;39.82
7180;BME280;3631;42.152;24.756;2023-09-30T05:37:24;83862.09;;;-144.30;38.87
7180;BME280;3631;42.152;24.756;2023-09-30T05:39:51;83786.56;;;-144.30;38.66
7180;BME280;3631;42.152;24.756;2023-09-30T05:42:19;83699.16;;;-144.30;37.41
7180;BME280;3631;42.152;24.756;2023-09-30T05:44:47;83587.88;;;-144.30;36.75
7180;BME280;3631;42.152;24.756;2023-09-30T05:47:14;83464.69;;;-144.30;35.58
7180;BME280;3631;42.152;24.756;2023-09-30T05:49:42;83419.00;;;-144.30;34.38
7180;BME280;3631;42.152;24.756;2023-09-30T05:52:09;83325.63;;;-144.30;34.25
7180;BME280;3631;42.152;24.756;2023-09-30T05:54:35;83250.13;;;-144.30;33.99
7180;BME280;3631;42.152;24.756;2023-09-30T05:57:03;83176.63;;;-144.30;33.36
7180;BME280;3631;42.152;24.756;2023-09-30T05:59:31;83057.41;;;-144.30;32.56
7180;BME280;3631;42.152;24.756;2023-09-30T06:01:58;83049.47;;;-144.30;32.56
7180;BME280;3631;42.152;24.756;2023-09-30T06:04:25;83035.56;;;-144.30;32.03
7180;BME280;3631;42.152;24.756;2023-09-30T06:06:52;83019.69;;;-144.30;31.88
7180;BME280;3631;42.152;24.756;2023-09-30T06:09:19;82870.69;;;-144.30;31.12
7180;BME280;3631;42.152;24.756;2023-09-30T06:11:50;82751.50;;;-144.30;30.63
7180;BME280;3631;42.152;24.756;2023-09-30T06:14:17;82660.13;;;-144.30;29.84
7180;BME280;3631;42.152;24.756;2023-09-30T06:16:45;82570.75;;;-144.30;29.51
7180;BME280;3631;42.152;24.756;2023-09-30T06:19:13;82467.44;;;-144.30;29.29
7180;BME280;3631;42.152;24.756;2023-09-30T06:21:40;82405.88;;;-144.30;29.02
7180;BME280;3631;42.152;24.756;2023-09-30T06:24:08;82252.94;;;-144.30;28.39
7180;BME280;3631;42.152;24.756;2023-09-30T06:26:34;82153.63;;;-144.30;27.93
7180;BME280;3631;42.152;24.756;2023-09-30T06:29:02;82070.22;;;-144.30;27.76
7180;BME280;3631;42.152;24.756;2023-09-30T06:31:28;82030.50;;;-144.30;27.41
7180;BME280;3631;42.152;24.756;2023-09-30T06:33:57;81974.91;;;-144.30;27.36
7180;BME280;3631;42.152;24.756;2023-09-30T06:36:25;81780.28;;;-144.30;26.80
7180;BME280;3631;42.152;24.756;2023-09-30T06:38:52;81681.00;;;-144.30;26.34
7180;BME280;3631;42.152;24.756;2023-09-30T06:41:19;81575.75;;;-144.30;26.08
7180;BME280;3631;42.152;24.756;2023-09-30T06:43:46;81496.31;;;-144.30;25.52
7180;BME280;3631;42.152;24.756;2023-09-30T06:46:14;81486.38;;;-144.30;25.47
7180;BME280;3631;42.152;24.756;2023-09-30T06:48:41;81291.78;;;-144.30;25.10
7180;BME280;3631;42.152;24.756;2023-09-30T06:51:14;80964.19;;;-144.30;24.29
7180;BME280;3631;42.152;24.756;2023-09-30T06:53:42;80731.91;;;-144.30;23.77
7180;BME280;3631;42.152;24.756;2023-09-30T06:56:09;80757.72;;;-144.30;23.56
7180;BME280;3631;42.152;24.756;2023-09-30T06:58:36;80926.47;;;-144.30;23.69
7180;BME280;3631;42.152;24.756;2023-09-30T07:01:03;80993.97;;;-144.30;24.03
7180;BME280;3631;42.152;24.756;2023-09-30T07:03:30;80930.44;;;-144.30;23.48
7180;BME280;3631;42.152;24.756;2023-09-30T07:05:58;80813.31;;;-144.30;23.31
7180;BME280;3631;42.152;24.756;2023-09-30T07:08:27;80837.13;;;-144.30;23.57
7180;BME280;3631;42.152;24.756;2023-09-30T07:10:55;80686.25;;;-144.30;23.16
7180;BME280;3631;42.152;24.756;2023-09-30T07:13:22;80553.25;;;-144.30;22.95
7180;BME280;3631;42.152;24.756;2023-09-30T07:15:49;80539.34;;;-144.30;22.86
7180;BME280;3631;42.152;24.756;2023-09-30T07:18:16;80716.03;;;-144.30;23.11
7180;BME280;3631;42.152;24.756;2023-09-30T07:20:43;81037.66;;;-144.30;23.75
7180;BME280;3631;42.152;24.756;2023-09-30T07:23:10;81615.47;;;-144.30;24.57
7180;BME280;3631;42.152;24.756;2023-09-30T07:25:40;82010.66;;;-144.30;25.63
7180;BME280;3631;42.152;24.756;2023-09-30T07:28:08;82427.72;;;-144.30;26.82
7180;BME280;3631;42.152;24.756;2023-09-30T07:30:37;82678.00;;;-144.30;27.72
7180;BME280;3631;42.152;24.756;2023-09-30T07:33:04;82864.72;;;-144.30;28.58
7180;BME280;3631;42.152;24.756;2023-09-30T07:35:32;83003.78;;;-144.30;29.42
7180;BME280;3631;42.152;24.756;2023-09-30T07:37:59;83085.22;;;-144.30;29.92
7180;BME280;3631;42.152;24.756;2023-09-30T07:40:26;83162.72;;;-144.30;30.58
7180;BME280;3631;42.152;24.756;2023-09-30T07:42:56;83222.31;;;-144.30;31.16
7180;BME280;3631;42.152;24.756;2023-09-30T07:45:23;83301.78;;;-144.30;31.58
7180;BME280;3631;42.152;24.756;2023-09-30T07:47:50;83335.56;;;-144.30;31.54
7180;BME280;3631;42.152;24.756;2023-09-30T07:50:17;83349.47;;;-144.30;31.88
7180;BME280;3631;42.152;24.756;2023-09-30T07:52:44;83387.22;;;-144.30;32.41
7180;BME280;3631;42.152;24.756;2023-09-30T07:55:12;83355.41;;;-144.30;32.24
7180;BME280;3631;42.152;24.756;2023-09-30T07:57:40;83351.44;;;-144.30;32.27
7180;BME280;3631;42.152;24.756;2023-09-30T08:00:10;83361.38;;;-144.30;32.27
7180;BME280;3631;42.152;24.756;2023-09-30T08:02:40;83413.03;;;-144.30;32.46
7180;BME280;3631;42.152;24.756;2023-09-30T08:05:08;83434.91;;;-144.30;32.63
7180;BME280;3631;42.152;24.756;2023-09-30T08:07:36;83452.78;;;-144.30;33.17
7180;BME280;3631;42.152;24.756;2023-09-30T08:10:04;83470.66;;;-144.30;32.90
7180;BME280;3631;42.152;24.756;2023-09-30T08:12:32;83464.69;;;-144.30;32.84
7180;BME280;3631;42.152;24.756;2023-09-30T08:14:59;83518.34;;;-144.30;33.28
7180;BME280;3631;42.152;24.756;2023-09-30T08:17:30;83504.44;;;-144.30;33.09
7180;BME280;3631;42.152;24.756;2023-09-30T08:19:57;83492.50;;;-144.30;33.15
7180;BME280;3631;42.152;24.756;2023-09-30T08:22:24;83411.06;;;-144.30;32.75
7180;BME280;3631;42.152;24.756;2023-09-30T08:24:53;83444.81;;;-144.30;33.25
7180;BME280;3631;42.152;24.756;2023-09-30T08:27:20;83365.34;;;-144.30;32.75
7180;BME280;3631;42.152;24.756;2023-09-30T08:29:52;83448.81;;;-144.30;32.80
7180;BME280;3631;42.152;24.756;2023-09-30T08:32:19;83456.75;;;-144.30;32.33
7180;BME280;3631;42.152;24.756;2023-09-30T08:34:48;83452.78;;;-144.30;32.21
7180;BME280;3631;42.152;24.756;2023-09-30T08:37:15;83409.06;;;-144.30;32.43
7180;BME280;3631;42.152;24.756;2023-09-30T08:39:42;83399.13;;;-144.30;32.00
7180;BME280;3631;42.152;24.756;2023-09-30T08:42:10;83420.97;;;-144.30;31.59
7180;BME280;3631;42.152;24.756;2023-09-30T08:44:38;83397.16;;;-144.30;31.73
7180;BME280;3631;42.152;24.756;2023-09-30T08:47:06;83311.72;;;-144.30;31.59
7180;BME280;3631;42.152;24.756;2023-09-30T08:49:34;83343.50;;;-144.30;31.70
7180;BME280;3631;42.152;24.756;2023-09-30T08:52:06;83381.25;;;-144.30;31.30
7180;BME280;3631;42.152;24.756;2023-09-30T08:54:36;83407.06;;;-144.30;31.27
7180;BME280;3631;42.152;24.756;2023-09-30T08:57:03;83359.41;;;-144.30;31.25
7180;BME280;3631;42.152;24.756;2023-09-30T08:59:31;83359.41;;;-144.30;31.07
7180;BME280;3631;42.152;24.756;2023-09-30T09:02:01;83355.41;;;-144.30;32.44
7180;BME280;3631;42.152;24.756;2023-09-30T09:04:29;83335.56;;;-144.30;31.49
7180;BME280;3631;42.152;24.756;2023-09-30T09:06:56;83397.16;;;-144.30;31.10
7180;BME280;3631;42.152;24.756;2023-09-30T09:09:24;83397.16;;;-144.30;31.44
7180;BME280;3631;42.152;24.756;2023-09-30T09:11:51;83430.91;;;-144.30;31.57
7180;BME280;3631;42.152;24.756;2023-09-30T09:14:18;83432.91;;;-144.30;32.65
7180;BME280;3631;42.152;24.756;2023-09-30T09:16:52;83401.13;;;-144.30;34.89
7180;BME280;3631;42.152;24.756;2023-09-30T09:19:19;83452.78;;;-144.30;32.22
7180;BME280;3631;42.152;24.756;2023-09-30T09:21:58;83476.63;;;-144.30;32.53
7180;BME280;3631;42.152;24.756;2023-09-30T09:24:31;83456.75;;;-144.30;32.03
7180;BME280;3631;42.152;24.756;2023-09-30T09:27:05;83468.66;;;-144.30;32.27
7180;BME280;3631;42.152;24.756;2023-09-30T09:29:33;83498.47;;;-144.30;31.58
7180;BME280;3631;42.152;24.756;2023-09-30T09:32:07;83500.47;;;-144.30;31.85
7180;BME280;3631;42.152;24.756;2023-09-30T09:34:35;83448.81;;;-144.30;32.53
7180;BME280;3631;42.152;24.756;2023-09-30T09:37:16;83468.66;;;-144.30;34.17
7180;BME280;3631;42.152;24.756;2023-09-30T09:39:51;83468.66;;;-144.30;32.16
7180;BME280;3631;42.152;24.756;2023-09-30T09:42:26;83472.66;;;-144.30;32.36
7180;BME280;3631;42.152;24.756;2023-09-30T09:44:55;83440.84;;;-144.30;33.89
7180;BME280;3631;42.152;24.756;2023-09-30T09:47:24;83428.94;;;-144.30;32.14
7180;BME280;3631;42.152;24.756;2023-09-30T09:49:51;83456.75;;;-144.30;32.34
7180;BME280;3631;42.152;24.756;2023-09-30T09:52:19;83434.91;;;-144.30;31.85
7180;BME280;3631;42.152;24.756;2023-09-30T09:54:46;83488.53;;;-144.30;30.90
7180;BME280;3631;42.152;24.756;2023-09-30T09:57:16;83462.72;;;-144.30;31.78
7180;BME280;3631;42.152;24.756;2023-09-30T09:59:43;83351.44;;;-144.30;31.74
7180;BME280;3631;42.152;24.756;2023-09-30T10:02:13;83417.00;;;-144.30;31.09
7180;BME280;3631;42.152;24.756;2023-09-30T10:04:41;83470.66;;;-144.30;30.43
7180;BME280;3631;42.152;24.756;2023-09-30T10:07:11;83420.97;;;-144.30;30.23
7180;BME280;3631;42.152;24.756;2023-09-30T10:09:44;83450.78;;;-144.30;30.61
7180;BME280;3631;42.152;24.756;2023-09-30T10:12:15;83389.19;;;-144.30;30.38
7180;BME280;3631;42.152;24.756;2023-09-30T10:14:42;83168.66;;;-144.30;30.56
7180;BME280;3631;42.152;24.756;2023-09-30T10:17:09;83355.41;;;-144.30;29.84
7180;BME280;3631;42.152;24.756;2023-09-30T10:20:04;83333.56;;;-144.30;29.75
7180;BME280;3631;42.152;24.756;2023-09-30T10:22:33;83391.19;;;-144.30;29.80
7180;BME280;3631;42.152;24.756;2023-09-30T10:25:00;83365.34;;;-144.30;29.58
7180;BME280;3631;42.152;24.756;2023-09-30T10:27:36;83341.50;;;-144.30;29.78
7180;BME280;3631;42.152;24.756;2023-09-30T10:30:07;83347.47;;;-144.30;29.09
7180;BME280;3631;42.152;24.756;2023-09-30T10:33:09;83295.81;;;-144.30;28.66
7180;BME280;3631;42.152;24.756;2023-09-30T10:35:49;83291.84;;;-144.30;31.49
7180;BME280;3631;42.152;24.756;2023-09-30T10:38:38;83281.91;;;-144.30;28.52
7180;BME280;3631;42.152;24.756;2023-09-30T10:41:08;83289.84;;;-144.30;28.41
7180;BME280;3631;42.152;24.756;2023-09-30T10:43:39;83301.78;;;-144.30;28.58
7180;BME280;3631;42.152;24.756;2023-09-30T10:46:31;83275.94;;;-144.30;28.08
7180;BME280;3631;42.152;24.756;2023-09-30T10:49:17;83363.38;;;-144.30;27.91
7180;BME280;3631;42.152;24.756;2023-09-30T10:51:45;83371.31;;;-144.30;27.73
7180;BME280;3631;42.152;24.756;2023-09-30T10:54:13;83313.69;;;-144.30;28.16
7180;BME280;3631;42.152;24.756;2023-09-30T10:56:40;83309.72;;;-144.30;28.44
7180;BME280;3631;42.152;24.756;2023-09-30T10:59:07;83391.19;;;-144.30;28.25
7180;BME280;3631;42.152;24.756;2023-09-30T11:01:35;83395.16;;;-144.30;28.08
7180;BME280;3631;42.152;24.756;2023-09-30T11:04:03;83419.00;;;-144.30;28.11
7180;BME280;3631;42.152;24.756;2023-09-30T11:06:31;83436.88;;;-144.30;27.91
7180;BME280;3631;42.152;24.756;2023-09-30T11:09:01;83458.72;;;-144.30;27.96
7180;BME280;3631;42.152;24.756;2023-09-30T11:11:35;83446.81;;;-144.30;28.27
7180;BME280;3631;42.152;24.756;2023-09-30T11:14:03;83434.91;;;-144.30;27.82
7180;BME280;3631;42.152;24.756;2023-09-30T11:16:43;83448.81;;;-144.30;28.17
7180;BME280;3631;42.152;24.756;2023-09-30T11:19:13;83291.84;;;-144.30;28.43
7180;BME280;3631;42.152;24.756;2023-09-30T11:21:40;83450.78;;;-144.30;28.61
7180;BME280;3631;42.152;24.756;2023-09-30T11:24:10;83460.72;;;-144.30;28.54
7180;BME280;3631;42.152;24.756;2023-09-30T11:26:38;83430.91;;;-144.30;28.34
7180;BME280;3631;42.152;24.756;2023-09-30T11:29:08;83464.69;;;-144.30;28.26
7180;BME280;3631;42.152;24.756;2023-09-30T11:31:39;83480.59;;;-144.30;27.91
7180;BME280;3631;42.152;24.756;2023-09-30T11:34:07;83452.78;;;-144.30;28.07
7180;BME280;3631;42.152;24.756;2023-09-30T11:36:35;83903.81;;;-144.30;28.28
7180;BME280;3631;42.152;24.756;2023-09-30T11:39:02;83415.03;;;-144.30;28.30
7180;BME280;3631;42.152;24.756;2023-09-30T11:41:35;83464.69;;;-144.30;28.15
7180;BME280;3631;42.152;24.756;2023-09-30T11:44:05;83444.81;;;-144.30;28.05
7180;BME280;3631;42.152;24.756;2023-09-30T11:46:33;83464.69;;;-144.30;27.93
7180;BME280;3631;42.152;24.756;2023-09-30T11:49:24;83434.91;;;-144.30;28.13
7180;BME280;3631;42.152;24.756;2023-09-30T11:51:52;83448.81;;;-144.30;28.15
7180;BME280;3631;42.152;24.756;2023-09-30T11:54:19;83436.88;;;-144.30;28.42
7180;BME280;3631;42.152;24.756;2023-09-30T11:56:49;83361.38;;;-144.30;28.47
7180;BME280;3631;42.152;24.756;2023-09-30T11:59:17;83403.09;;;-144.30;28.05
7180;BME280;3631;42.152;24.756;2023-09-30T12:01:48;83413.03;;;-144.30;28.04
7180;BME280;3631;42.152;24.756;2023-09-30T12:04:15;83401.13;;;-144.30;28.06
7180;BME280;3631;42.152;24.756;2023-09-30T12:06:45;83391.19;;;-144.30;28.13
7180;BME280;3631;42.152;24.756;2023-09-30T12:09:12;83379.25;;;-144.30;27.87
7180;BME280;3631;42.152;24.756;2023-09-30T12:11:40;83407.06;;;-144.30;27.97
7180;BME280;3631;42.152;24.756;2023-09-30T12:14:11;83289.84;;;-144.30;27.57
7180;BME280;3631;42.152;24.756;2023-09-30T12:16:38;83351.44;;;-144.30;27.23
7180;BME280;3631;42.152;24.756;2023-09-30T12:19:06;83407.06;;;-144.30;27.52
7180;BME280;3631;42.152;24.756;2023-09-30T12:21:34;83405.09;;;-144.30;27.50
7180;BME280;3631;42.152;24.756;2023-09-30T12:24:02;83393.16;;;-144.30;27.79
7180;BME280;3631;42.152;24.756;2023-09-30T12:26:30;83373.31;;;-144.30;27.93
7180;BME280;3631;42.152;24.756;2023-09-30T12:28:57;83377.28;;;-144.30;27.84
7180;BME280;3631;42.152;24.756;2023-09-30T12:31:25;83369.34;;;-144.30;27.84
7180;BME280;3631;42.152;24.756;2023-09-30T12:33:52;83393.16;;;-144.30;28.02
7180;BME280;3631;42.152;24.756;2023-09-30T12:36:19;83335.56;;;-144.30;27.86
7180;BME280;3631;42.152;24.756;2023-09-30T12:38:47;83325.63;;;-144.30;27.79
7180;BME280;3631;42.152;24.756;2023-09-30T12:41:14;83359.41;;;-144.30;27.76
7180;BME280;3631;42.152;24.756;2023-09-30T12:43:41;83359.41;;;-144.30;27.57
7180;BME280;3631;42.152;24.756;2023-09-30T12:46:08;83397.16;;;-144.30;27.51
7180;BME280;3631;42.152;24.756;2023-09-30T12:48:36;83381.25;;;-144.30;27.74
7180;BME280;3631;42.152;24.756;2023-09-30T12:51:04;83327.59;;;-144.30;27.64
7180;BME280;3631;42.152;24.756;2023-09-30T12:53:32;83275.94;;;-144.30;27.44
7180;BME280;3631;42.152;24.756;2023-09-30T12:55:59;83347.47;;;-144.30;27.06
7180;BME280;3631;42.152;24.756;2023-09-30T12:58:26;83345.50;;;-144.30;27.25